Time;durP1;ratioP1;P1;durP2;ratioP2;P2;SDS_P1;SDS_P2;PMS_P1;PMS_P2;Temp;Humidity;BMP_temperature;BMP_pressure;BME280_temperature;BME280_humidity;BME280_pressure;Samples;Min_cycle;Max_cycle;Signal;HPM_P1;HPM_P2
2022/10/26 00:06:55;;;;;;;12.43;5.20;;;12.20;99.90;;;;;;21174700;28;20217;-72
2022/10/26 00:16:57;;;;;;;14.97;4.63;;;12.20;99.90;;;;;;21173538;28;20216;-72
2022/10/26 00:26:59;;;;;;;13.27;4.60;;;12.30;99.90;;;;;;21172990;28;20684;-73
2022/10/26 00:37:00;;;;;;;11.00;4.57;;;12.30;99.90;;;;;;21172014;28;20235;-73
2022/10/26 00:47:04;;;;;;;10.43;4.07;;;12.30;99.90;;;;;;21170972;28;20222;-73
2022/10/26 00:57:06;;;;;;;13.80;4.57;;;12.40;99.90;;;;;;21171666;28;20234;-73
2022/10/26 01:07:08;;;;;;;14.23;5.57;;;12.40;99.90;;;;;;21169408;28;20229;-73
2022/10/26 01:17:27;;;;;;;15.77;6.80;;;12.40;99.90;;;;;;21167791;28;20234;-73
2022/10/26 01:27:37;;;;;;;14.87;6.80;;;12.30;99.90;;;;;;21168096;28;20764;-73
2022/10/26 01:37:47;;;;;;;14.33;6.40;;;12.30;99.90;;;;;;21167255;28;20730;-73
2022/10/26 01:47:53;;;;;;;12.43;6.53;;;12.30;99.90;;;;;;21166102;28;20282;-73
2022/10/26 01:58:07;;;;;;;10.20;6.63;;;12.50;99.90;;;;;;21165400;28;20266;-73
2022/10/26 02:08:15;;;;;;;10.37;6.37;;;12.50;99.90;;;;;;21166054;28;20234;-73
2022/10/26 02:18:36;;;;;;;12.27;6.73;;;12.50;99.90;;;;;;21164119;28;20209;-73
2022/10/26 02:28:45;;;;;;;14.67;6.97;;;12.30;99.90;;;;;;21163337;28;20230;-74
2022/10/26 02:38:48;;;;;;;13.37;6.70;;;12.30;99.90;;;;;;21145123;28;20240;-73
2022/10/26 02:48:49;;;;;;;10.80;6.73;;;12.40;99.90;;;;;;21162727;28;20232;-72
2022/10/26 02:58:56;;;;;;;10.00;6.53;;;12.40;99.90;;;;;;21162373;28;20728;-72
2022/10/26 03:08:58;;;;;;;10.83;6.93;;;12.50;99.90;;;;;;21162134;28;20233;-72
2022/10/26 03:18:59;;;;;;;11.57;7.10;;;12.60;99.90;;;;;;21161798;28;20230;-72
2022/10/26 03:29:01;;;;;;;11.87;7.03;;;12.50;99.90;;;;;;21144181;28;20239;-71
2022/10/26 03:39:02;;;;;;;18.50;7.47;;;12.60;99.90;;;;;;21171377;28;20237;-72
2022/10/26 03:49:04;;;;;;;15.87;7.63;;;12.60;99.90;;;;;;21176100;28;20236;-72
2022/10/26 03:59:06;;;;;;;14.33;7.93;;;12.60;99.90;;;;;;21174987;28;20209;-71
2022/10/26 04:09:07;;;;;;;12.67;7.07;;;12.50;99.90;;;;;;21173473;28;20634;-71
2022/10/26 04:19:09;;;;;;;13.07;7.30;;;12.50;99.90;;;;;;21172973;28;20236;-72
2022/10/26 04:29:12;;;;;;;10.50;7.73;;;12.50;99.90;;;;;;21172316;28;20597;-71
2022/10/26 04:39:14;;;;;;;11.80;7.40;;;12.50;99.90;;;;;;21172565;28;20241;-72
2022/10/26 04:49:15;;;;;;;16.80;7.77;;;12.50;99.90;;;;;;21170562;28;20638;-72
2022/10/26 04:59:17;;;;;;;11.67;7.60;;;12.60;99.90;;;;;;21149430;28;20234;-73
2022/10/26 05:09:19;;;;;;;11.27;7.40;;;12.60;99.90;;;;;;21168816;27;20279;-70
2022/10/26 05:19:20;;;;;;;17.93;8.20;;;12.70;99.90;;;;;;21169138;28;20653;-71
2022/10/26 05:29:22;;;;;;;13.10;7.63;;;12.70;99.90;;;;;;21147980;28;20691;-72
2022/10/26 05:39:24;;;;;;;13.97;6.63;;;12.60;99.90;;;;;;21166024;28;20226;-71
2022/10/26 05:49:25;;;;;;;11.40;7.67;;;12.60;99.90;;;;;;21146875;28;20230;-71
2022/10/26 05:59:28;;;;;;;16.73;7.97;;;12.50;99.90;;;;;;21164157;28;20202;-70
2022/10/26 06:09:31;;;;;;;23.57;16.50;;;12.50;99.90;;;;;;21159114;28;20235;-71
2022/10/26 06:19:57;;;;;;;16.33;7.60;;;12.60;99.90;;;;;;21160136;28;20617;-72
2022/10/26 06:30:11;;;;;;;12.63;6.57;;;12.60;99.90;;;;;;21163091;28;20230;-71
2022/10/26 06:40:14;;;;;;;16.67;7.83;;;12.50;99.90;;;;;;21162426;28;20234;-71
2022/10/26 06:50:37;;;;;;;16.53;7.57;;;12.50;99.90;;;;;;21161784;28;20235;-71
2022/10/26 07:00:39;;;;;;;18.03;7.50;;;12.60;99.90;;;;;;21160053;28;20209;-71
2022/10/26 07:10:42;;;;;;;16.07;8.50;;;12.70;99.90;;;;;;21148241;28;20233;-73
2022/10/26 07:20:44;;;;;;;14.60;7.43;;;12.70;99.90;;;;;;21176617;28;20607;-71
2022/10/26 07:30:45;;;;;;;17.10;7.73;;;12.70;99.90;;;;;;21175611;28;20297;-71
2022/10/26 07:40:49;;;;;;;16.20;7.33;;;12.70;99.90;;;;;;21175508;28;20289;-71
2022/10/26 07:50:51;;;;;;;11.87;7.63;;;12.80;99.90;;;;;;21174699;28;20230;-70
2022/10/26 08:00:53;;;;;;;15.33;8.00;;;13.00;99.90;;;;;;21173439;28;20253;-70
2022/10/26 08:10:55;;;;;;;11.10;6.83;;;13.00;99.90;;;;;;21173029;28;20631;-70
2022/10/26 08:21:02;;;;;;;16.03;6.97;;;13.00;99.90;;;;;;21171858;28;20205;-71
2022/10/26 08:31:12;;;;;;;11.47;7.03;;;13.10;99.90;;;;;;21170975;28;20237;-72
2022/10/26 08:41:14;;;;;;;13.07;7.20;;;13.30;99.90;;;;;;21171097;28;20228;-70
2022/10/26 08:51:21;;;;;;;10.40;7.13;;;13.50;99.90;;;;;;21169991;28;20242;-71
2022/10/26 09:01:22;;;;;;;11.27;6.50;;;13.60;99.90;;;;;;21169872;28;20234;-70
2022/10/26 09:11:42;;;;;;;14.37;7.30;;;13.80;99.90;;;;;;21168428;28;20275;-70
2022/10/26 09:22:09;;;;;;;10.90;6.97;;;14.00;99.90;;;;;;21167603;28;20671;-71
2022/10/26 09:32:38;;;;;;;19.30;12.67;;;14.50;99.90;;;;;;21165730;28;20756;-71
2022/10/26 09:42:46;;;;;;;16.90;7.10;;;14.90;99.90;;;;;;21165064;28;20233;-69
2022/10/26 09:52:47;;;;;;;20.60;7.43;;;15.20;99.90;;;;;;21163923;28;20237;-69
2022/10/26 10:02:52;;;;;;;12.30;6.73;;;15.20;99.90;;;;;;21163506;28;20202;-71
2022/10/26 10:12:54;;;;;;;15.40;7.83;;;15.30;99.90;;;;;;21162419;28;20246;-71
2022/10/26 10:23:01;;;;;;;13.47;6.90;;;15.40;99.90;;;;;;21163302;28;20210;-78
2022/10/26 10:33:10;;;;;;;12.80;6.23;;;15.50;99.90;;;;;;21162277;28;20278;-73
2022/10/26 10:43:13;;;;;;;15.30;6.97;;;15.80;99.90;;;;;;21166079;28;20241;-70
2022/10/26 10:53:25;;;;;;;12.57;6.90;;;15.80;99.90;;;;;;21189710;28;20234;-70
2022/10/26 11:04:01;;;;;;;12.90;6.93;;;15.90;99.90;;;;;;21189063;28;20624;-70
2022/10/26 11:14:27;;;;;;;11.47;6.63;;;16.00;99.90;;;;;;21188917;28;20825;-69
2022/10/26 11:24:48;;;;;;;12.73;5.67;;;16.30;99.90;;;;;;21188534;28;20215;-70
2022/10/26 11:35:18;;;;;;;13.27;5.87;;;16.60;99.90;;;;;;21188141;28;20240;-69
2022/10/26 11:45:34;;;;;;;9.53;4.47;;;17.00;99.90;;;;;;21187736;28;20225;-69
2022/10/26 11:55:38;;;;;;;8.13;4.23;;;17.40;99.90;;;;;;21182941;28;20233;-75
2022/10/26 12:05:39;;;;;;;6.83;2.83;;;17.80;99.90;;;;;;21174644;28;20198;-71
2022/10/26 12:15:52;;;;;;;8.17;4.77;;;18.20;99.90;;;;;;21172374;28;20293;-72
2022/10/26 12:26:32;;;;;;;15.40;4.63;;;18.60;99.90;;;;;;21171995;28;20217;-70
2022/10/26 12:36:54;;;;;;;12.53;4.50;;;18.90;99.90;;;;;;21170902;28;20237;-72
2022/10/26 12:46:56;;;;;;;8.90;2.60;;;19.20;99.90;;;;;;21170134;28;20210;-68
2022/10/26 12:57:19;;;;;;;9.67;3.00;;;19.30;99.90;;;;;;21169203;28;20290;-71
2022/10/26 13:07:23;;;;;;;7.33;3.10;;;19.40;99.90;;;;;;21167705;28;20206;-70
2022/10/26 13:17:28;;;;;;;10.67;3.30;;;19.50;99.60;;;;;;21167477;28;20233;-70
2022/10/26 13:27:33;;;;;;;10.10;2.83;;;19.60;99.30;;;;;;21168781;28;20535;-71
2022/10/26 13:37:36;;;;;;;11.67;3.77;;;19.70;99.20;;;;;;21167661;28;20298;-69
2022/10/26 13:47:51;;;;;;;5.23;2.50;;;19.80;99.10;;;;;;21165812;28;20206;-76
2022/10/26 13:58:07;;;;;;;5.97;2.27;;;19.70;98.60;;;;;;21164447;28;20660;-72
2022/10/26 14:08:16;;;;;;;7.37;2.60;;;19.70;98.50;;;;;;21163992;28;20259;-78
2022/10/26 14:18:22;;;;;;;10.97;5.10;;;19.50;98.60;;;;;;21162897;28;20243;-71
2022/10/26 14:28:27;;;;;;;4.43;2.30;;;19.40;98.70;;;;;;21161654;28;20234;-73
2022/10/26 14:38:39;;;;;;;5.20;1.83;;;19.40;98.90;;;;;;21162596;28;20226;-69
2022/10/26 14:48:50;;;;;;;11.10;1.90;;;19.30;99.00;;;;;;21163233;28;20706;-71
2022/10/26 14:58:52;;;;;;;14.33;2.70;;;19.20;98.90;;;;;;21162303;28;20205;-65
2022/10/26 15:08:59;;;;;;;8.83;2.73;;;19.20;99.10;;;;;;21161852;28;20637;-68
2022/10/26 15:19:13;;;;;;;5.53;2.00;;;19.20;99.40;;;;;;21161010;28;20206;-76
2022/10/26 15:29:35;;;;;;;6.80;2.40;;;19.20;99.20;;;;;;21162723;28;20233;-71
2022/10/26 15:39:37;;;;;;;10.43;2.80;;;19.20;99.20;;;;;;21176248;28;20226;-75
2022/10/26 15:49:38;;;;;;;9.27;3.00;;;19.00;99.40;;;;;;21157328;28;20236;-78
2022/10/26 15:59:40;;;;;;;8.43;2.80;;;18.70;99.90;;;;;;21174344;28;20205;-74
2022/10/26 16:09:43;;;;;;;6.27;3.10;;;18.50;99.90;;;;;;21156224;28;20255;-70
2022/10/26 16:19:46;;;;;;;7.10;3.37;;;18.40;99.90;;;;;;21173548;28;20221;-71
2022/10/26 16:29:48;;;;;;;9.30;3.40;;;18.30;99.90;;;;;;21172898;28;20232;-76
2022/10/26 16:39:49;;;;;;;14.67;5.00;;;18.20;99.90;;;;;;21171574;28;20288;-73
2022/10/26 16:49:51;;;;;;;9.07;3.27;;;18.10;99.90;;;;;;21171009;28;20229;-72
2022/10/26 16:59:53;;;;;;;8.57;3.17;;;17.90;99.90;;;;;;21170272;28;20204;-71
2022/10/26 17:09:54;;;;;;;7.90;3.57;;;17.90;99.90;;;;;;21170656;28;20233;-71
2022/10/26 17:19:56;;;;;;;9.33;4.27;;;17.80;99.90;;;;;;21168612;28;20295;-71
2022/10/26 17:29:58;;;;;;;9.20;4.60;;;17.60;99.90;;;;;;21167374;28;20267;-73
2022/10/26 17:39:59;;;;;;;13.37;6.93;;;17.40;99.90;;;;;;21164449;28;20234;-72
2022/10/26 17:50:03;;;;;;;18.60;11.13;;;17.20;99.90;;;;;;21163504;28;20233;-71
2022/10/26 18:00:06;;;;;;;11.37;7.00;;;16.90;99.90;;;;;;21165129;28;20206;-72
2022/10/26 18:10:08;;;;;;;13.10;7.47;;;16.80;99.90;;;;;;21163480;27;20237;-72
2022/10/26 18:20:29;;;;;;;26.07;8.13;;;16.50;99.90;;;;;;21163728;28;20205;-72
2022/10/26 18:30:32;;;;;;;17.27;5.83;;;16.30;99.90;;;;;;21162982;28;20690;-69
2022/10/26 18:40:34;;;;;;;19.43;8.00;;;16.10;99.90;;;;;;21162786;28;20265;-74
2022/10/26 18:50:36;;;;;;;17.03;7.50;;;16.00;99.90;;;;;;21144689;28;20230;-73
2022/10/26 19:00:38;;;;;;;16.03;7.13;;;15.80;99.90;;;;;;21165864;28;20668;-73
2022/10/26 19:10:40;;;;;;;14.57;8.87;;;15.70;99.90;;;;;;21152717;28;20230;-73
2022/10/26 19:20:42;;;;;;;13.70;8.73;;;15.50;99.90;;;;;;21178691;28;20646;-73
2022/10/26 19:30:48;;;;;;;15.47;8.30;;;15.50;99.90;;;;;;21159240;28;20642;-71
2022/10/26 19:40:57;;;;;;;12.33;7.27;;;15.30;99.90;;;;;;21176673;28;20592;-72
2022/10/26 19:50:58;;;;;;;13.87;7.27;;;15.20;99.90;;;;;;21176406;28;20308;-72
2022/10/26 20:01:02;;;;;;;10.47;7.40;;;15.10;99.90;;;;;;21152644;27;20570;-72
2022/10/26 20:11:05;;;;;;;16.47;8.30;;;15.00;99.90;;;;;;21087805;28;20237;-72
2022/10/26 20:21:15;;;;;;;17.53;8.13;;;14.90;99.90;;;;;;21090308;28;20209;-72
2022/10/26 20:31:17;;;;;;;15.43;9.00;;;14.70;99.90;;;;;;21089629;28;20233;-72
2022/10/26 20:41:19;;;;;;;12.90;7.57;;;14.60;99.90;;;;;;21088332;28;20288;-72
2022/10/26 20:52:25;;;;;;;15.17;7.67;;;14.50;99.90;;;;;;21087302;28;20226;-72
2022/10/26 21:02:28;;;;;;;16.60;7.73;;;14.50;99.90;;;;;;20871176;28;20216;-72
2022/10/26 21:12:29;;;;;;;14.33;8.67;;;14.20;99.90;;;;;;21085479;28;20243;-72
2022/10/26 21:22:31;;;;;;;15.80;8.50;;;14.20;99.90;;;;;;21085274;28;20267;-73
2022/10/26 21:32:32;;;;;;;16.37;9.20;;;14.20;99.90;;;;;;21083252;28;20267;-73
2022/10/26 21:42:34;;;;;;;16.50;8.77;;;14.00;99.90;;;;;;21083346;28;20268;-73
2022/10/26 21:52:36;;;;;;;20.27;9.03;;;13.90;99.90;;;;;;21083077;28;20235;-72
2022/10/26 22:02:37;;;;;;;16.50;7.63;;;13.90;99.90;;;;;;21116505;28;20664;-72
2022/10/26 22:12:39;;;;;;;16.70;6.80;;;13.80;99.90;;;;;;21162624;28;20573;-73
2022/10/26 22:22:41;;;;;;;12.27;6.30;;;13.70;99.90;;;;;;21158332;28;20563;-73
2022/10/26 22:32:42;;;;;;;23.60;7.53;;;13.60;99.90;;;;;;21159749;28;20229;-72
2022/10/26 22:42:44;;;;;;;21.17;7.80;;;13.50;99.90;;;;;;21162972;28;20240;-72
2022/10/26 22:52:46;;;;;;;13.13;6.93;;;13.40;99.90;;;;;;21163245;28;20707;-72
2022/10/26 23:02:47;;;;;;;13.60;6.60;;;13.30;99.90;;;;;;21163259;28;20222;-72
2022/10/26 23:12:49;;;;;;;13.90;6.30;;;13.20;99.90;;;;;;21162156;28;20236;-72
2022/10/26 23:22:52;;;;;;;13.10;5.47;;;13.20;99.90;;;;;;21162282;28;20202;-73
2022/10/26 23:32:55;;;;;;;13.50;5.60;;;13.10;99.90;;;;;;21162153;28;20280;-72
2022/10/26 23:42:56;;;;;;;10.63;5.53;;;12.90;99.90;;;;;;21160959;28;20233;-72
2022/10/26 23:52:58;;;;;;;13.70;5.40;;;12.90;99.90;;;;;;21166417;28;20727;-73
